sensor_id;sensor_type;location;lat;lon;timestamp;P1;durP1;ratioP1;P2;durP2;ratioP2
53867;SDS011;41577;47.470;19.080;2022-09-30T00:00:08;7.95;;;7.15;;
53867;SDS011;41577;47.470;19.080;2022-09-30T00:00:27;8.32;;;7.20;;
53867;SDS011;41577;47.470;19.080;2022-09-30T00:00:42;9.55;;;7.45;;
53867;SDS011;41577;47.470;19.080;2022-09-30T00:00:58;8.95;;;7.45;;
53867;SDS011;41577;47.470;19.080;2022-09-30T00:01:15;8.02;;;7.05;;
53867;SDS011;41577;47.470;19.080;2022-09-30T00:01:29;8.02;;;7.22;;
53867;SDS011;41577;47.470;19.080;2022-09-30T00:01:45;8.10;;;6.75;;
53867;SDS011;41577;47.470;19.080;2022-09-30T00:02:05;7.88;;;6.45;;
53867;SDS011;41577;47.470;19.080;2022-09-30T00:02:20;10.70;;;7.00;;
53867;SDS011;41577;47.470;19.080;2022-09-30T00:02:35;11.77;;;7.35;;
53867;SDS011;41577;47.470;19.080;2022-09-30T00:02:50;10.00;;;7.50;;
53867;SDS011;41577;47.470;19.080;2022-09-30T00:03:07;9.05;;;7.30;;
53867;SDS011;41577;47.470;19.080;2022-09-30T00:03:22;8.10;;;6.88;;
53867;SDS011;41577;47.470;19.080;2022-09-30T00:03:37;7.85;;;7.05;;
53867;SDS011;41577;47.470;19.080;2022-09-30T00:03:54;7.90;;;7.10;;
53867;SDS011;41577;47.470;19.080;2022-09-30T00:04:12;8.00;;;6.78;;
53867;SDS011;41577;47.470;19.080;2022-09-30T00:04:28;8.90;;;6.97;;
53867;SDS011;41577;47.470;19.080;2022-09-30T00:04:42;8.70;;;7.28;;
53867;SDS011;41577;47.470;19.080;2022-09-30T00:04:57;9.77;;;7.50;;
53867;SDS011;41577;47.470;19.080;2022-09-30T00:05:12;11.57;;;7.47;;
53867;SDS011;41577;47.470;19.080;2022-09-30T00:05:27;11.95;;;7.38;;
53867;SDS011;41577;47.470;19.080;2022-09-30T00:05:41;10.75;;;7.28;;
53867;SDS011;41577;47.470;19.080;2022-09-30T00:05:56;9.10;;;6.78;;
53867;SDS011;41577;47.470;19.080;2022-09-30T00:06:10;8.77;;;6.65;;
53867;SDS011;41577;47.470;19.080;2022-09-30T00:06:26;8.38;;;7.00;;
53867;SDS011;41577;47.470;19.080;2022-09-30T00:06:43;7.80;;;7.00;;
53867;SDS011;41577;47.470;19.080;2022-09-30T00:06:58;8.43;;;6.95;;
53867;SDS011;41577;47.470;19.080;2022-09-30T00:07:14;9.50;;;7.28;;
53867;SDS011;41577;47.470;19.080;2022-09-30T00:07:29;9.00;;;7.13;;
53867;SDS011;41577;47.470;19.080;2022-09-30T00:07:45;8.00;;;7.20;;
53867;SDS011;41577;47.470;19.080;2022-09-30T00:08:01;8.57;;;7.45;;
53867;SDS011;41577;47.470;19.080;2022-09-30T00:08:15;10.18;;;7.32;;
53867;SDS011;41577;47.470;19.080;2022-09-30T00:08:30;10.15;;;7.70;;
53867;SDS011;41577;47.470;19.080;2022-09-30T00:08:48;9.57;;;7.63;;
53867;SDS011;41577;47.470;19.080;2022-09-30T00:09:05;9.05;;;6.80;;
53867;SDS011;41577;47.470;19.080;2022-09-30T00:09:21;9.02;;;6.70;;
53867;SDS011;41577;47.470;19.080;2022-09-30T00:09:35;9.48;;;7.22;;
53867;SDS011;41577;47.470;19.080;2022-09-30T00:09:50;9.80;;;7.40;;
53867;SDS011;41577;47.470;19.080;2022-09-30T00:10:05;10.35;;;7.95;;
53867;SDS011;41577;47.470;19.080;2022-09-30T00:10:22;10.57;;;8.27;;
53867;SDS011;41577;47.470;19.080;2022-09-30T00:10:37;9.57;;;7.85;;
53867;SDS011;41577;47.470;19.080;2022-09-30T00:10:58;8.60;;;7.50;;
53867;SDS011;41577;47.470;19.080;2022-09-30T00:11:13;8.90;;;7.32;;
53867;SDS011;41577;47.470;19.080;2022-09-30T00:11:32;8.40;;;7.45;;
53867;SDS011;41577;47.470;19.080;2022-09-30T00:11:51;9.07;;;7.35;;
53867;SDS011;41577;47.470;19.080;2022-09-30T00:12:07;9.95;;;7.78;;
53867;SDS011;41577;47.470;19.080;2022-09-30T00:12:22;9.30;;;7.88;;
53867;SDS011;41577;47.470;19.080;2022-09-30T00:12:37;9.45;;;7.93;;
53867;SDS011;41577;47.470;19.080;2022-09-30T00:12:51;11.95;;;8.32;;
53867;SDS011;41577;47.470;19.080;2022-09-30T00:13:08;10.48;;;7.95;;
53867;SDS011;41577;47.470;19.080;2022-09-30T00:13:23;10.52;;;7.55;;
53867;SDS011;41577;47.470;19.080;2022-09-30T00:13:38;10.55;;;7.28;;
53867;SDS011;41577;47.470;19.080;2022-09-30T00:13:53;8.95;;;7.22;;
53867;SDS011;41577;47.470;19.080;2022-09-30T00:14:11;12.00;;;8.48;;
53867;SDS011;41577;47.470;19.080;2022-09-30T00:14:28;13.77;;;8.45;;
53867;SDS011;41577;47.470;19.080;2022-09-30T00:14:44;10.60;;;7.78;;
53867;SDS011;41577;47.470;19.080;2022-09-30T00:14:58;9.38;;;7.93;;
53867;SDS011;41577;47.470;19.080;2022-09-30T00:15:12;9.85;;;7.85;;
53867;SDS011;41577;47.470;19.080;2022-09-30T00:15:27;9.30;;;7.82;;
53867;SDS011;41577;47.470;19.080;2022-09-30T00:15:45;9.70;;;8.02;;
53867;SDS011;41577;47.470;19.080;2022-09-30T00:16:01;12.30;;;8.15;;
53867;SDS011;41577;47.470;19.080;2022-09-30T00:16:16;12.95;;;8.23;;
53867;SDS011;41577;47.470;19.080;2022-09-30T00:16:33;11.18;;;8.55;;
53867;SDS011;41577;47.470;19.080;2022-09-30T00:16:49;11.80;;;8.40;;
53867;SDS011;41577;47.470;19.080;2022-09-30T00:17:04;11.80;;;8.13;;
53867;SDS011;41577;47.470;19.080;2022-09-30T00:17:18;10.80;;;8.10;;
53867;SDS011;41577;47.470;19.080;2022-09-30T00:17:45;9.90;;;8.30;;
53867;SDS011;41577;47.470;19.080;2022-09-30T00:18:02;11.20;;;8.82;;
53867;SDS011;41577;47.470;19.080;2022-09-30T00:18:16;11.48;;;8.43;;
53867;SDS011;41577;47.470;19.080;2022-09-30T00:18:30;10.05;;;8.15;;
53867;SDS011;41577;47.470;19.080;2022-09-30T00:18:46;9.88;;;8.60;;
53867;SDS011;41577;47.470;19.080;2022-09-30T00:19:00;10.10;;;8.60;;
53867;SDS011;41577;47.470;19.080;2022-09-30T00:19:17;10.85;;;8.63;;
53867;SDS011;41577;47.470;19.080;2022-09-30T00:19:32;10.73;;;9.13;;
53867;SDS011;41577;47.470;19.080;2022-09-30T00:19:47;10.05;;;8.88;;
53867;SDS011;41577;47.470;19.080;2022-09-30T00:20:01;9.82;;;8.77;;
53867;SDS011;41577;47.470;19.080;2022-09-30T00:20:17;10.38;;;8.75;;
53867;SDS011;41577;47.470;19.080;2022-09-30T00:20:33;10.98;;;8.80;;
53867;SDS011;41577;47.470;19.080;2022-09-30T00:20:47;10.88;;;9.07;;
53867;SDS011;41577;47.470;19.080;2022-09-30T00:21:04;10.10;;;9.05;;
53867;SDS011;41577;47.470;19.080;2022-09-30T00:21:21;11.55;;;9.45;;
53867;SDS011;41577;47.470;19.080;2022-09-30T00:21:36;14.02;;;9.32;;
53867;SDS011;41577;47.470;19.080;2022-09-30T00:21:52;12.95;;;9.07;;
53867;SDS011;41577;47.470;19.080;2022-09-30T00:22:07;9.80;;;8.75;;
53867;SDS011;41577;47.470;19.080;2022-09-30T00:22:22;9.48;;;8.27;;
53867;SDS011;41577;47.470;19.080;2022-09-30T00:22:37;13.00;;;9.25;;
53867;SDS011;41577;47.470;19.080;2022-09-30T00:22:53;16.00;;;9.90;;
53867;SDS011;41577;47.470;19.080;2022-09-30T00:23:08;15.07;;;9.77;;
53867;SDS011;41577;47.470;19.080;2022-09-30T00:23:22;14.50;;;9.65;;
53867;SDS011;41577;47.470;19.080;2022-09-30T00:23:37;13.70;;;9.32;;
53867;SDS011;41577;47.470;19.080;2022-09-30T00:23:54;14.55;;;9.63;;
53867;SDS011;41577;47.470;19.080;2022-09-30T00:24:10;12.18;;;9.45;;
53867;SDS011;41577;47.470;19.080;2022-09-30T00:24:24;11.38;;;9.35;;
53867;SDS011;41577;47.470;19.080;2022-09-30T00:24:41;12.27;;;9.95;;
53867;SDS011;41577;47.470;19.080;2022-09-30T00:24:55;12.60;;;9.95;;
53867;SDS011;41577;47.470;19.080;2022-09-30T00:25:11;15.43;;;10.32;;
53867;SDS011;41577;47.470;19.080;2022-09-30T00:25:28;13.80;;;10.50;;
53867;SDS011;41577;47.470;19.080;2022-09-30T00:25:42;11.73;;;10.07;;
53867;SDS011;41577;47.470;19.080;2022-09-30T00:25:59;13.93;;;10.60;;
53867;SDS011;41577;47.470;19.080;2022-09-30T00:26:14;14.65;;;10.48;;
53867;SDS011;41577;47.470;19.080;2022-09-30T00:26:30;13.57;;;9.82;;
53867;SDS011;41577;47.470;19.080;2022-09-30T00:26:47;12.70;;;10.13;;
53867;SDS011;41577;47.470;19.080;2022-09-30T00:27:02;13.40;;;10.15;;
53867;SDS011;41577;47.470;19.080;2022-09-30T00:27:17;11.68;;;9.95;;
53867;SDS011;41577;47.470;19.080;2022-09-30T00:27:32;14.68;;;10.27;;
53867;SDS011;41577;47.470;19.080;2022-09-30T00:27:46;14.40;;;10.02;;
53867;SDS011;41577;47.470;19.080;2022-09-30T00:28:02;12.27;;;9.85;;
53867;SDS011;41577;47.470;19.080;2022-09-30T00:28:16;17.52;;;10.75;;
53867;SDS011;41577;47.470;19.080;2022-09-30T00:28:31;17.90;;;10.60;;
53867;SDS011;41577;47.470;19.080;2022-09-30T00:28:48;14.43;;;9.82;;
53867;SDS011;41577;47.470;19.080;2022-09-30T00:29:03;12.23;;;9.85;;
53867;SDS011;41577;47.470;19.080;2022-09-30T00:29:18;12.65;;;10.40;;
53867;SDS011;41577;47.470;19.080;2022-09-30T00:29:35;15.32;;;10.45;;
53867;SDS011;41577;47.470;19.080;2022-09-30T00:29:49;16.20;;;10.68;;
53867;SDS011;41577;47.470;19.080;2022-09-30T00:30:05;15.43;;;10.80;;
53867;SDS011;41577;47.470;19.080;2022-09-30T00:30:19;14.45;;;10.73;;
53867;SDS011;41577;47.470;19.080;2022-09-30T00:30:38;15.43;;;11.13;;
53867;SDS011;41577;47.470;19.080;2022-09-30T00:30:57;15.88;;;10.90;;
53867;SDS011;41577;47.470;19.080;2022-09-30T00:31:16;17.85;;;10.80;;
53867;SDS011;41577;47.470;19.080;2022-09-30T00:31:33;14.43;;;10.15;;
53867;SDS011;41577;47.470;19.080;2022-09-30T00:31:49;11.65;;;10.38;;
53867;SDS011;41577;47.470;19.080;2022-09-30T00:32:08;12.25;;;10.40;;
53867;SDS011;41577;47.470;19.080;2022-09-30T00:32:26;16.15;;;10.77;;
53867;SDS011;41577;47.470;19.080;2022-09-30T00:32:43;15.38;;;10.60;;
53867;SDS011;41577;47.470;19.080;2022-09-30T00:33:00;11.68;;;10.48;;
53867;SDS011;41577;47.470;19.080;2022-09-30T00:33:15;13.90;;;11.32;;
53867;SDS011;41577;47.470;19.080;2022-09-30T00:33:36;16.85;;;11.65;;
53867;SDS011;41577;47.470;19.080;2022-09-30T00:33:51;16.85;;;11.38;;
53867;SDS011;41577;47.470;19.080;2022-09-30T00:34:20;15.30;;;10.65;;
53867;SDS011;41577;47.470;19.080;2022-09-30T00:34:35;17.10;;;10.75;;
53867;SDS011;41577;47.470;19.080;2022-09-30T00:34:50;15.32;;;11.27;;
53867;SDS011;41577;47.470;19.080;2022-09-30T00:35:07;14.18;;;11.57;;
53867;SDS011;41577;47.470;19.080;2022-09-30T00:35:21;14.02;;;11.68;;
53867;SDS011;41577;47.470;19.080;2022-09-30T00:35:36;14.07;;;11.35;;
53867;SDS011;41577;47.470;19.080;2022-09-30T00:35:51;13.27;;;11.15;;
53867;SDS011;41577;47.470;19.080;2022-09-30T00:36:06;13.00;;;10.95;;
53867;SDS011;41577;47.470;19.080;2022-09-30T00:36:21;13.55;;;10.90;;
53867;SDS011;41577;47.470;19.080;2022-09-30T00:36:36;14.40;;;11.13;;
53867;SDS011;41577;47.470;19.080;2022-09-30T00:36:58;16.67;;;11.93;;
53867;SDS011;41577;47.470;19.080;2022-09-30T00:37:15;18.85;;;11.85;;
53867;SDS011;41577;47.470;19.080;2022-09-30T00:37:33;20.05;;;11.85;;
53867;SDS011;41577;47.470;19.080;2022-09-30T00:37:47;18.02;;;11.20;;
53867;SDS011;41577;47.470;19.080;2022-09-30T00:38:03;14.25;;;11.20;;
53867;SDS011;41577;47.470;19.080;2022-09-30T00:38:20;14.35;;;11.50;;
53867;SDS011;41577;47.470;19.080;2022-09-30T00:38:35;14.73;;;11.88;;
53867;SDS011;41577;47.470;19.080;2022-09-30T00:38:49;15.43;;;12.07;;
53867;SDS011;41577;47.470;19.080;2022-09-30T00:39:06;14.45;;;11.80;;
53867;SDS011;41577;47.470;19.080;2022-09-30T00:39:24;15.15;;;11.75;;
53867;SDS011;41577;47.470;19.080;2022-09-30T00:39:41;19.60;;;12.57;;
53867;SDS011;41577;47.470;19.080;2022-09-30T00:39:55;17.55;;;11.75;;
53867;SDS011;41577;47.470;19.080;2022-09-30T00:40:09;12.52;;;10.40;;
53867;SDS011;41577;47.470;19.080;2022-09-30T00:40:26;14.93;;;11.50;;
53867;SDS011;41577;47.470;19.080;2022-09-30T00:40:42;15.23;;;11.57;;
53867;SDS011;41577;47.470;19.080;2022-09-30T00:40:58;13.73;;;11.07;;
53867;SDS011;41577;47.470;19.080;2022-09-30T00:41:21;15.63;;;11.52;;
53867;SDS011;41577;47.470;19.080;2022-09-30T00:41:38;16.77;;;11.95;;
53867;SDS011;41577;47.470;19.080;2022-09-30T00:41:54;14.38;;;12.02;;
53867;SDS011;41577;47.470;19.080;2022-09-30T00:42:12;15.68;;;12.50;;
53867;SDS011;41577;47.470;19.080;2022-09-30T00:42:31;15.43;;;12.65;;
53867;SDS011;41577;47.470;19.080;2022-09-30T00:42:46;15.55;;;12.23;;
53867;SDS011;41577;47.470;19.080;2022-09-30T00:43:01;18.77;;;11.95;;
53867;SDS011;41577;47.470;19.080;2022-09-30T00:43:18;18.70;;;12.30;;
53867;SDS011;41577;47.470;19.080;2022-09-30T00:43:51;15.20;;;12.05;;
53867;SDS011;41577;47.470;19.080;2022-09-30T00:45:02;17.30;;;12.18;;
53867;SDS011;41577;47.470;19.080;2022-09-30T00:45:18;15.70;;;12.07;;
53867;SDS011;41577;47.470;19.080;2022-09-30T00:45:33;14.23;;;12.00;;
53867;SDS011;41577;47.470;19.080;2022-09-30T00:45:58;14.35;;;11.98;;
53867;SDS011;41577;47.470;19.080;2022-09-30T00:46:16;14.90;;;12.38;;
53867;SDS011;41577;47.470;19.080;2022-09-30T00:46:34;18.10;;;12.65;;
53867;SDS011;41577;47.470;19.080;2022-09-30T00:46:51;21.70;;;12.95;;
53867;SDS011;41577;47.470;19.080;2022-09-30T00:47:10;18.10;;;12.57;;
53867;SDS011;41577;47.470;19.080;2022-09-30T00:47:47;16.80;;;13.45;;
53867;SDS011;41577;47.470;19.080;2022-09-30T00:48:08;16.75;;;13.20;;
53867;SDS011;41577;47.470;19.080;2022-09-30T00:48:31;17.27;;;12.82;;
53867;SDS011;41577;47.470;19.080;2022-09-30T00:48:49;17.63;;;13.45;;
53867;SDS011;41577;47.470;19.080;2022-09-30T00:49:07;15.63;;;12.73;;
53867;SDS011;41577;47.470;19.080;2022-09-30T00:49:26;15.10;;;12.32;;
53867;SDS011;41577;47.470;19.080;2022-09-30T00:49:40;16.70;;;13.30;;
53867;SDS011;41577;47.470;19.080;2022-09-30T00:49:56;16.33;;;13.50;;
53867;SDS011;41577;47.470;19.080;2022-09-30T00:50:17;18.67;;;13.40;;
53867;SDS011;41577;47.470;19.080;2022-09-30T00:50:37;18.40;;;13.80;;
53867;SDS011;41577;47.470;19.080;2022-09-30T00:50:54;16.80;;;13.43;;
53867;SDS011;41577;47.470;19.080;2022-09-30T00:51:10;16.88;;;13.27;;
53867;SDS011;41577;47.470;19.080;2022-09-30T00:51:27;15.90;;;12.55;;
53867;SDS011;41577;47.470;19.080;2022-09-30T00:51:46;15.73;;;12.50;;
53867;SDS011;41577;47.470;19.080;2022-09-30T00:52:05;17.90;;;13.52;;
53867;SDS011;41577;47.470;19.080;2022-09-30T00:52:23;19.05;;;13.48;;
53867;SDS011;41577;47.470;19.080;2022-09-30T00:52:37;18.58;;;13.40;;
53867;SDS011;41577;47.470;19.080;2022-09-30T00:52:54;17.50;;;13.95;;
53867;SDS011;41577;47.470;19.080;2022-09-30T00:53:11;18.67;;;13.82;;
53867;SDS011;41577;47.470;19.080;2022-09-30T00:53:29;18.33;;;13.50;;
53867;SDS011;41577;47.470;19.080;2022-09-30T00:53:51;20.90;;;13.88;;
53867;SDS011;41577;47.470;19.080;2022-09-30T00:54:11;19.95;;;13.88;;
53867;SDS011;41577;47.470;19.080;2022-09-30T00:54:29;17.58;;;13.43;;
53867;SDS011;41577;47.470;19.080;2022-09-30T00:54:46;18.00;;;13.52;;
53867;SDS011;41577;47.470;19.080;2022-09-30T00:55:05;17.00;;;13.77;;
53867;SDS011;41577;47.470;19.080;2022-09-30T00:55:25;16.75;;;13.02;;
53867;SDS011;41577;47.470;19.080;2022-09-30T00:55:51;17.17;;;13.52;;
53867;SDS011;41577;47.470;19.080;2022-09-30T00:56:11;16.35;;;13.73;;
53867;SDS011;41577;47.470;19.080;2022-09-30T00:56:35;23.58;;;14.10;;
53867;SDS011;41577;47.470;19.080;2022-09-30T00:57:00;20.73;;;13.80;;
53867;SDS011;41577;47.470;19.080;2022-09-30T00:57:17;17.00;;;14.15;;
53867;SDS011;41577;47.470;19.080;2022-09-30T00:57:33;17.25;;;13.82;;
53867;SDS011;41577;47.470;19.080;2022-09-30T00:57:49;17.50;;;13.50;;
53867;SDS011;41577;47.470;19.080;2022-09-30T00:58:05;18.10;;;13.82;;
53867;SDS011;41577;47.470;19.080;2022-09-30T00:58:25;19.30;;;14.13;;
53867;SDS011;41577;47.470;19.080;2022-09-30T00:58:45;18.45;;;13.50;;
53867;SDS011;41577;47.470;19.080;2022-09-30T00:59:04;19.90;;;13.80;;
53867;SDS011;41577;47.470;19.080;2022-09-30T00:59:24;15.68;;;13.02;;
53867;SDS011;41577;47.470;19.080;2022-09-30T00:59:42;15.98;;;13.60;;
53867;SDS011;41577;47.470;19.080;2022-09-30T01:00:06;17.33;;;13.80;;
53867;SDS011;41577;47.470;19.080;2022-09-30T01:00:21;19.08;;;13.82;;
53867;SDS011;41577;47.470;19.080;2022-09-30T01:00:36;18.30;;;13.18;;
53867;SDS011;41577;47.470;19.080;2022-09-30T01:01:08;21.30;;;14.38;;
53867;SDS011;41577;47.470;19.080;2022-09-30T01:01:23;21.10;;;13.35;;
53867;SDS011;41577;47.470;19.080;2022-09-30T01:01:37;17.38;;;12.63;;
53867;SDS011;41577;47.470;19.080;2022-09-30T01:01:55;17.73;;;12.60;;
53867;SDS011;41577;47.470;19.080;2022-09-30T01:02:10;17.40;;;13.05;;
53867;SDS011;41577;47.470;19.080;2022-09-30T01:02:26;18.42;;;14.02;;
53867;SDS011;41577;47.470;19.080;2022-09-30T01:02:41;19.45;;;13.63;;
53867;SDS011;41577;47.470;19.080;2022-09-30T01:02:58;18.25;;;13.23;;
53867;SDS011;41577;47.470;19.080;2022-09-30T01:03:14;17.60;;;13.85;;
53867;SDS011;41577;47.470;19.080;2022-09-30T01:03:28;17.23;;;14.10;;
53867;SDS011;41577;47.470;19.080;2022-09-30T01:03:46;16.05;;;13.02;;
53867;SDS011;41577;47.470;19.080;2022-09-30T01:04:05;17.13;;;13.07;;
53867;SDS011;41577;47.470;19.080;2022-09-30T01:04:23;18.35;;;13.65;;
53867;SDS011;41577;47.470;19.080;2022-09-30T01:04:40;16.52;;;13.38;;
53867;SDS011;41577;47.470;19.080;2022-09-30T01:04:55;16.27;;;13.20;;
53867;SDS011;41577;47.470;19.080;2022-09-30T01:05:10;16.77;;;13.50;;
53867;SDS011;41577;47.470;19.080;2022-09-30T01:05:26;19.50;;;14.57;;
53867;SDS011;41577;47.470;19.080;2022-09-30T01:05:44;22.58;;;15.07;;
53867;SDS011;41577;47.470;19.080;2022-09-30T01:05:59;22.35;;;14.80;;
53867;SDS011;41577;47.470;19.080;2022-09-30T01:06:15;18.45;;;13.95;;
53867;SDS011;41577;47.470;19.080;2022-09-30T01:06:32;17.95;;;14.05;;
53867;SDS011;41577;47.470;19.080;2022-09-30T01:06:46;20.17;;;14.35;;
53867;SDS011;41577;47.470;19.080;2022-09-30T01:07:03;19.65;;;14.30;;
53867;SDS011;41577;47.470;19.080;2022-09-30T01:07:19;17.92;;;14.07;;
53867;SDS011;41577;47.470;19.080;2022-09-30T01:07:37;18.55;;;13.27;;
53867;SDS011;41577;47.470;19.080;2022-09-30T01:07:51;18.33;;;14.13;;
53867;SDS011;41577;47.470;19.080;2022-09-30T01:08:08;16.50;;;14.23;;
53867;SDS011;41577;47.470;19.080;2022-09-30T01:08:26;16.90;;;13.60;;
53867;SDS011;41577;47.470;19.080;2022-09-30T01:08:43;17.20;;;13.88;;
53867;SDS011;41577;47.470;19.080;2022-09-30T01:09:00;18.40;;;14.77;;
53867;SDS011;41577;47.470;19.080;2022-09-30T01:09:14;20.48;;;14.40;;
53867;SDS011;41577;47.470;19.080;2022-09-30T01:09:30;18.33;;;13.57;;
53867;SDS011;41577;47.470;19.080;2022-09-30T01:09:46;16.77;;;13.25;;
53867;SDS011;41577;47.470;19.080;2022-09-30T01:10:02;18.88;;;14.07;;
53867;SDS011;41577;47.470;19.080;2022-09-30T01:10:36;18.58;;;14.40;;
53867;SDS011;41577;47.470;19.080;2022-09-30T01:10:51;19.20;;;14.55;;
53867;SDS011;41577;47.470;19.080;2022-09-30T01:11:06;19.13;;;14.38;;
53867;SDS011;41577;47.470;19.080;2022-09-30T01:11:21;19.20;;;14.15;;
53867;SDS011;41577;47.470;19.080;2022-09-30T01:11:35;19.43;;;13.73;;
53867;SDS011;41577;47.470;19.080;2022-09-30T01:11:50;17.13;;;13.32;;
53867;SDS011;41577;47.470;19.080;2022-09-30T01:12:04;16.20;;;13.65;;
53867;SDS011;41577;47.470;19.080;2022-09-30T01:12:21;17.73;;;14.18;;
53867;SDS011;41577;47.470;19.080;2022-09-30T01:12:38;19.35;;;13.55;;
53867;SDS011;41577;47.470;19.080;2022-09-30T01:12:54;19.45;;;13.60;;
53867;SDS011;41577;47.470;19.080;2022-09-30T01:13:09;16.77;;;13.82;;
53867;SDS011;41577;47.470;19.080;2022-09-30T01:13:25;15.88;;;13.40;;
53867;SDS011;41577;47.470;19.080;2022-09-30T01:13:45;20.08;;;13.48;;
53867;SDS011;41577;47.470;19.080;2022-09-30T01:14:03;22.30;;;13.25;;
53867;SDS011;41577;47.470;19.080;2022-09-30T01:14:20;14.95;;;12.65;;
53867;SDS011;41577;47.470;19.080;2022-09-30T01:14:37;16.48;;;13.05;;
53867;SDS011;41577;47.470;19.080;2022-09-30T01:14:52;17.90;;;14.05;;
53867;SDS011;41577;47.470;19.080;2022-09-30T01:15:10;17.65;;;14.98;;
53867;SDS011;41577;47.470;19.080;2022-09-30T01:15:27;20.00;;;14.75;;
53867;SDS011;41577;47.470;19.080;2022-09-30T01:15:56;15.55;;;12.48;;
53867;SDS011;41577;47.470;19.080;2022-09-30T01:16:24;24.75;;;14.07;;
53867;SDS011;41577;47.470;19.080;2022-09-30T01:16:58;19.67;;;14.82;;
53867;SDS011;41577;47.470;19.080;2022-09-30T01:17:20;18.63;;;14.23;;
53867;SDS011;41577;47.470;19.080;2022-09-30T01:17:43;17.60;;;13.85;;
53867;SDS011;41577;47.470;19.080;2022-09-30T01:18:06;16.52;;;13.77;;
53867;SDS011;41577;47.470;19.080;2022-09-30T01:18:28;16.38;;;13.90;;
53867;SDS011;41577;47.470;19.080;2022-09-30T01:18:51;17.67;;;14.18;;
53867;SDS011;41577;47.470;19.080;2022-09-30T01:19:23;17.80;;;13.68;;
53867;SDS011;41577;47.470;19.080;2022-09-30T01:19:56;18.30;;;13.80;;
53867;SDS011;41577;47.470;19.080;2022-09-30T01:20:40;15.75;;;13.85;;
53867;SDS011;41577;47.470;19.080;2022-09-30T01:21:28;18.00;;;14.00;;
53867;SDS011;41577;47.470;19.080;2022-09-30T01:22:17;16.80;;;13.23;;
53867;SDS011;41577;47.470;19.080;2022-09-30T01:22:43;17.55;;;13.20;;
53867;SDS011;41577;47.470;19.080;2022-09-30T01:23:14;18.98;;;13.65;;
53867;SDS011;41577;47.470;19.080;2022-09-30T01:25:01;20.20;;;14.18;;
53867;SDS011;41577;47.470;19.080;2022-09-30T01:25:37;15.30;;;13.10;;
53867;SDS011;41577;47.470;19.080;2022-09-30T01:28:03;17.75;;;13.88;;
53867;SDS011;41577;47.470;19.080;2022-09-30T01:28:44;15.60;;;13.23;;
53867;SDS011;41577;47.470;19.080;2022-09-30T01:30:13;16.70;;;12.57;;
53867;SDS011;41577;47.470;19.080;2022-09-30T01:30:39;18.83;;;13.45;;
53867;SDS011;41577;47.470;19.080;2022-09-30T01:31:11;15.25;;;13.00;;
53867;SDS011;41577;47.470;19.080;2022-09-30T01:31:39;26.90;;;13.85;;
53867;SDS011;41577;47.470;19.080;2022-09-30T01:32:02;33.88;;;14.15;;
53867;SDS011;41577;47.470;19.080;2022-09-30T01:32:27;15.52;;;13.32;;
53867;SDS011;41577;47.470;19.080;2022-09-30T01:33:00;16.17;;;13.70;;
53867;SDS011;41577;47.470;19.080;2022-09-30T01:33:24;16.95;;;13.50;;
53867;SDS011;41577;47.470;19.080;2022-09-30T01:33:49;15.05;;;12.80;;
53867;SDS011;41577;47.470;19.080;2022-09-30T01:34:13;17.10;;;12.98;;
53867;SDS011;41577;47.470;19.080;2022-09-30T01:34:36;18.30;;;12.38;;
53867;SDS011;41577;47.470;19.080;2022-09-30T01:35:01;15.27;;;13.07;;
53867;SDS011;41577;47.470;19.080;2022-09-30T01:35:24;18.98;;;13.52;;
53867;SDS011;41577;47.470;19.080;2022-09-30T01:36:27;16.00;;;12.98;;
53867;SDS011;41577;47.470;19.080;2022-09-30T01:36:57;14.13;;;12.30;;
53867;SDS011;41577;47.470;19.080;2022-09-30T01:37:21;16.20;;;12.60;;
53867;SDS011;41577;47.470;19.080;2022-09-30T01:37:42;16.33;;;12.38;;
53867;SDS011;41577;47.470;19.080;2022-09-30T01:38:08;15.02;;;12.32;;
53867;SDS011;41577;47.470;19.080;2022-09-30T01:38:28;17.20;;;13.10;;
53867;SDS011;41577;47.470;19.080;2022-09-30T01:38:53;16.42;;;12.20;;
53867;SDS011;41577;47.470;19.080;2022-09-30T01:39:20;16.58;;;12.07;;
53867;SDS011;41577;47.470;19.080;2022-09-30T01:39:43;15.50;;;12.13;;
53867;SDS011;41577;47.470;19.080;2022-09-30T01:40:06;14.82;;;12.15;;
53867;SDS011;41577;47.470;19.080;2022-09-30T01:40:25;14.57;;;11.93;;
53867;SDS011;41577;47.470;19.080;2022-09-30T01:40:46;19.45;;;12.18;;
53867;SDS011;41577;47.470;19.080;2022-09-30T01:41:05;15.48;;;11.95;;
53867;SDS011;41577;47.470;19.080;2022-09-30T01:41:23;17.45;;;12.45;;
53867;SDS011;41577;47.470;19.080;2022-09-30T01:41:41;16.10;;;11.80;;
53867;SDS011;41577;47.470;19.080;2022-09-30T01:42:07;15.32;;;11.63;;
53867;SDS011;41577;47.470;19.080;2022-09-30T01:42:31;13.32;;;11.45;;
53867;SDS011;41577;47.470;19.080;2022-09-30T01:42:54;17.77;;;11.98;;
53867;SDS011;41577;47.470;19.080;2022-09-30T01:43:21;13.88;;;10.75;;
53867;SDS011;41577;47.470;19.080;2022-09-30T01:43:43;15.50;;;11.85;;
53867;SDS011;41577;47.470;19.080;2022-09-30T01:44:01;13.73;;;11.52;;
53867;SDS011;41577;47.470;19.080;2022-09-30T01:44:25;13.35;;;11.63;;
53867;SDS011;41577;47.470;19.080;2022-09-30T01:44:47;19.45;;;11.63;;
53867;SDS011;41577;47.470;19.080;2022-09-30T01:45:09;19.42;;;11.25;;
53867;SDS011;41577;47.470;19.080;2022-09-30T01:45:31;14.82;;;11.52;;
53867;SDS011;41577;47.470;19.080;2022-09-30T01:45:50;15.65;;;12.18;;
53867;SDS011;41577;47.470;19.080;2022-09-30T01:46:10;15.60;;;12.07;;
53867;SDS011;41577;47.470;19.080;2022-09-30T01:46:31;12.98;;;11.00;;
53867;SDS011;41577;47.470;19.080;2022-09-30T01:46:50;16.10;;;11.60;;
53867;SDS011;41577;47.470;19.080;2022-09-30T01:47:10;16.70;;;11.43;;
53867;SDS011;41577;47.470;19.080;2022-09-30T01:47:30;18.58;;;11.10;;
53867;SDS011;41577;47.470;19.080;2022-09-30T01:47:49;19.05;;;11.18;;
53867;SDS011;41577;47.470;19.080;2022-09-30T01:48:13;15.82;;;12.07;;
53867;SDS011;41577;47.470;19.080;2022-09-30T01:48:36;15.63;;;11.48;;
53867;SDS011;41577;47.470;19.080;2022-09-30T01:48:58;14.43;;;11.63;;
53867;SDS011;41577;47.470;19.080;2022-09-30T01:49:26;14.82;;;11.88;;
53867;SDS011;41577;47.470;19.080;2022-09-30T01:49:46;16.23;;;12.27;;
53867;SDS011;41577;47.470;19.080;2022-09-30T01:50:07;16.98;;;12.55;;
53867;SDS011;41577;47.470;19.080;2022-09-30T01:50:28;12.70;;;11.43;;
53867;SDS011;41577;47.470;19.080;2022-09-30T01:50:53;13.30;;;11.02;;
53867;SDS011;41577;47.470;19.080;2022-09-30T01:51:12;13.38;;;11.18;;
53867;SDS011;41577;47.470;19.080;2022-09-30T01:51:36;17.38;;;12.15;;
53867;SDS011;41577;47.470;19.080;2022-09-30T01:51:56;15.30;;;12.00;;
53867;SDS011;41577;47.470;19.080;2022-09-30T01:52:18;12.90;;;11.50;;
53867;SDS011;41577;47.470;19.080;2022-09-30T01:52:40;16.02;;;11.35;;
53867;SDS011;41577;47.470;19.080;2022-09-30T01:53:02;15.05;;;10.95;;
53867;SDS011;41577;47.470;19.080;2022-09-30T01:53:23;16.40;;;11.88;;
53867;SDS011;41577;47.470;19.080;2022-09-30T01:53:45;14.63;;;12.13;;
53867;SDS011;41577;47.470;19.080;2022-09-30T01:54:07;14.43;;;11.90;;
53867;SDS011;41577;47.470;19.080;2022-09-30T01:54:29;14.65;;;11.02;;